Terminal Aerodrome Forecast
Issued by NWS

Home | Current Version | Previous Version | Text Only | Print | Product List | Glossary On
Versions: 1 2 3 4 5 6 7 8 9 10 11 12 13 14 15 16
000
FTUS46 KPQR 030159 AAB
TAFONP
TAF AMD
KONP 030159Z 0302/0324 22012KT P6SM OVC004
     FM030400 21005KT 2SM BR OVC004
     FM031200 19003KT 6SM BR OVC015
     FM031500 VRB03KT P6SM OVC015
     FM031900 34013KT P6SM OVC025=

USA.gov is the U.S. government's official web portal to all federal, state and local government web resources and services.